createdAt,value
2022-11-26T00:00:38.754Z,23.40
2022-11-26T00:05:46.645Z,26.33
2022-11-26T00:10:52.995Z,20.33
2022-11-26T00:15:55.651Z,27.65
2022-11-26T00:21:00.899Z,22.23
2022-11-26T00:26:04.097Z,21.63
2022-11-26T00:31:14.200Z,21.92
2022-11-26T00:36:25.191Z,19.60
2022-11-26T00:41:32.852Z,22.75
2022-11-26T00:46:34.485Z,20.30
2022-11-26T00:51:36.316Z,25.55
2022-11-26T00:56:39.247Z,21.95
2022-11-26T01:01:41.136Z,25.98
2022-11-26T01:06:44.678Z,25.17
2022-11-26T01:11:49.873Z,24.57
2022-11-26T01:16:56.508Z,24.52
2022-11-26T01:21:58.175Z,21.92
2022-11-26T01:26:59.821Z,22.10
2022-11-26T01:32:01.536Z,20.65
2022-11-26T01:37:03.289Z,20.40
2022-11-26T01:42:16.588Z,21.20
2022-11-26T01:47:24.532Z,19.65
2022-11-26T01:52:26.889Z,22.33
2022-11-26T01:57:30.451Z,24.27
2022-11-26T02:02:32.149Z,21.80
2022-11-26T02:07:35.325Z,22.75
2022-11-26T02:12:38.027Z,19.23
2022-11-26T02:17:48.612Z,23.67
2022-11-26T02:22:50.181Z,25.67
2022-11-26T02:28:06.144Z,20.70
2022-11-26T02:33:19.389Z,17.77
2022-11-26T02:38:24.735Z,17.73
2022-11-26T02:43:27.497Z,19.38
2022-11-26T02:48:34.054Z,16.30
2022-11-26T02:53:37.080Z,27.65
2022-11-26T02:58:38.993Z,20.52
2022-11-26T03:03:46.523Z,18.75
2022-11-26T03:08:48.790Z,19.33
2022-11-26T03:13:50.463Z,21.73
2022-11-26T03:18:52.088Z,24.55
2022-11-26T03:23:53.821Z,22.50
2022-11-26T03:28:55.504Z,22.60
2022-11-26T03:33:57.151Z,21.63
2022-11-26T03:38:58.805Z,24.35
2022-11-26T03:44:00.518Z,28.88
2022-11-26T03:49:02.155Z,22.10
2022-11-26T03:54:03.914Z,22.00
2022-11-26T03:59:05.547Z,25.65
2022-11-26T04:04:07.401Z,28.20
2022-11-26T04:09:08.999Z,27.98
2022-11-26T04:14:10.751Z,26.13
2022-11-26T04:19:12.490Z,23.77
2022-11-26T04:24:14.166Z,25.90
2022-11-26T04:29:15.875Z,26.02
2022-11-26T04:34:17.495Z,23.15
2022-11-26T04:39:19.171Z,21.98
2022-11-26T04:44:20.828Z,23.73
2022-11-26T04:49:22.546Z,24.98
2022-11-26T04:54:24.206Z,22.30
2022-11-26T04:59:26.002Z,24.60
2022-11-26T05:04:28.837Z,22.30
2022-11-26T05:09:31.537Z,22.20
2022-11-26T05:14:33.280Z,23.80
2022-11-26T05:19:34.929Z,24.30
2022-11-26T05:24:38.073Z,22.30
2022-11-26T05:29:40.021Z,24.47
2022-11-26T05:34:41.748Z,23.98
2022-11-26T05:39:43.466Z,28.48
2022-11-26T05:44:45.136Z,26.08
2022-11-26T05:49:46.764Z,25.33
2022-11-26T05:54:48.539Z,27.30
2022-11-26T05:59:50.151Z,28.13
2022-11-26T06:04:51.823Z,19.05
2022-11-26T06:09:53.606Z,21.05
2022-11-26T06:14:55.221Z,26.65
2022-11-26T06:19:56.934Z,26.10
2022-11-26T06:24:58.572Z,24.90
2022-11-26T06:30:00.179Z,23.17
2022-11-26T06:35:01.789Z,22.45
2022-11-26T06:40:03.771Z,25.10
2022-11-26T06:45:05.861Z,26.27
2022-11-26T06:50:10.826Z,23.25
2022-11-26T06:55:12.717Z,23.98
2022-11-26T07:00:14.613Z,19.55
2022-11-26T07:05:16.257Z,20.38
2022-11-26T07:10:18.234Z,22.83
2022-11-26T07:15:19.892Z,20.00
2022-11-26T07:20:21.851Z,22.02
2022-11-26T07:25:23.450Z,20.98
2022-11-26T07:30:25.172Z,20.90
2022-11-26T07:35:26.836Z,21.80
2022-11-26T07:40:29.488Z,26.80
2022-11-26T07:45:31.140Z,25.33
2022-11-26T07:50:32.862Z,23.63
2022-11-26T07:55:34.480Z,20.52
2022-11-26T08:00:36.290Z,23.73
2022-11-26T08:05:42.508Z,18.48
2022-11-26T08:10:44.166Z,22.60
2022-11-26T08:15:48.630Z,24.02
2022-11-26T08:20:59.626Z,20.17
2022-11-26T08:31:37.287Z,20.13
2022-11-26T08:36:41.907Z,25.77
2022-11-26T08:41:48.921Z,24.85
2022-11-26T08:46:53.974Z,20.52
2022-11-26T08:51:56.755Z,23.52
2022-11-26T08:56:58.449Z,18.92
2022-11-26T09:02:00.412Z,22.10
2022-11-26T09:07:03.167Z,22.00
2022-11-26T09:12:06.287Z,27.38
2022-11-26T09:17:09.857Z,27.25
2022-11-26T09:22:11.642Z,27.27
2022-11-26T09:27:13.375Z,26.20
2022-11-26T09:32:24.480Z,26.38
2022-11-26T09:37:30.568Z,24.07
2022-11-26T09:42:49.998Z,21.07
2022-11-26T09:47:53.631Z,23.08
2022-11-26T09:53:19.885Z,18.67
2022-11-26T09:58:57.621Z,27.48
2022-11-26T10:04:00.189Z,19.65
2022-11-26T10:09:10.763Z,17.80
2022-11-26T10:14:40.691Z,21.73
2022-11-26T10:20:00.936Z,22.10
2022-11-26T10:25:04.215Z,18.05
2022-11-26T10:30:26.979Z,19.17
2022-11-26T10:35:30.001Z,17.13
2022-11-26T10:40:32.939Z,19.48
2022-11-26T10:45:37.703Z,13.38
2022-11-26T10:50:47.537Z,14.90
2022-11-26T10:55:51.864Z,13.55
2022-11-26T11:01:02.135Z,15.40
2022-11-26T11:06:25.799Z,15.43
2022-11-26T11:11:30.621Z,18.60
2022-11-26T11:16:46.222Z,11.40
2022-11-26T11:21:48.815Z,11.50
2022-11-26T11:26:53.474Z,12.35
2022-11-26T11:31:57.504Z,14.75
2022-11-26T11:36:59.332Z,11.65
2022-11-26T11:42:04.638Z,12.98
2022-11-26T11:47:17.533Z,10.52
2022-11-26T11:52:55.947Z,10.15
2022-11-26T11:58:40.078Z,13.70
2022-11-26T12:04:00.616Z,10.20
2022-11-26T12:09:31.970Z,11.50
2022-11-26T12:14:43.011Z,22.38
2022-11-26T12:19:57.764Z,10.65
2022-11-26T12:25:08.633Z,11.77
2022-11-26T12:30:20.446Z,9.68
2022-11-26T12:35:31.028Z,13.45
2022-11-26T12:40:58.049Z,12.07
2022-11-26T12:46:09.368Z,10.20
2022-11-26T12:51:31.577Z,9.55
2022-11-26T12:56:52.782Z,9.48
2022-11-26T13:01:54.569Z,15.80
2022-11-26T13:07:26.615Z,12.70
2022-11-26T13:12:51.658Z,10.90
2022-11-26T13:17:54.486Z,11.10
2022-11-26T13:23:21.087Z,8.98
2022-11-26T13:28:47.426Z,13.77
2022-11-26T13:34:07.189Z,10.23
2022-11-26T13:39:23.136Z,9.77
2022-11-26T13:45:01.710Z,15.48
2022-11-26T13:50:30.124Z,12.82
2022-11-26T13:55:51.993Z,12.63
2022-11-26T14:00:53.721Z,10.95
2022-11-26T14:05:57.337Z,9.18
2022-11-26T14:10:59.084Z,9.57
2022-11-26T14:16:06.082Z,12.25
2022-11-26T14:21:07.753Z,10.35
2022-11-26T14:26:29.946Z,12.35
2022-11-26T14:31:31.687Z,11.98
2022-11-26T14:36:33.397Z,8.85
2022-11-26T14:41:36.161Z,12.13
2022-11-26T14:46:38.814Z,9.02
2022-11-26T14:51:44.682Z,13.88
2022-11-26T14:56:46.965Z,12.48
2022-11-26T15:01:48.695Z,9.82
2022-11-26T15:06:50.570Z,11.75
2022-11-26T15:12:11.843Z,9.70
2022-11-26T15:17:18.616Z,7.93
2022-11-26T15:22:32.783Z,9.85
2022-11-26T15:27:39.192Z,9.73
2022-11-26T15:32:40.842Z,16.02
2022-11-26T15:37:42.699Z,22.30
2022-11-26T15:42:47.168Z,13.40
2022-11-26T15:47:51.882Z,7.18
2022-11-26T15:53:18.373Z,12.60
2022-11-26T15:58:26.493Z,11.45
2022-11-26T16:03:36.222Z,11.93
2022-11-26T16:08:39.229Z,14.20
2022-11-26T16:13:40.977Z,8.90
2022-11-26T16:18:59.212Z,13.18
2022-11-26T16:24:05.592Z,11.98
2022-11-26T16:29:10.119Z,10.55
2022-11-26T16:34:11.785Z,10.30
2022-11-26T16:39:14.909Z,13.07
2022-11-26T16:44:16.545Z,13.98
2022-11-26T16:49:18.401Z,14.52
2022-11-26T16:54:20.075Z,12.57
2022-11-26T16:59:28.004Z,11.48
2022-11-26T17:04:29.825Z,13.40
2022-11-26T17:09:31.594Z,11.35
2022-11-26T17:14:33.482Z,14.60
2022-11-26T17:19:35.212Z,12.60
2022-11-26T17:24:37.705Z,11.48
2022-11-26T17:29:42.834Z,14.43
2022-11-26T17:34:45.770Z,15.27
2022-11-26T17:39:47.466Z,14.30
2022-11-26T17:44:49.836Z,11.63
2022-11-26T17:49:52.614Z,17.50
2022-11-26T17:54:54.259Z,15.93
2022-11-26T17:59:56.570Z,12.70
2022-11-26T18:04:58.274Z,16.17
2022-11-26T18:10:00.100Z,14.15
2022-11-26T18:15:02.068Z,18.92
2022-11-26T18:20:04.161Z,17.98
2022-11-26T18:25:06.030Z,16.40
2022-11-26T18:30:09.205Z,15.60
2022-11-26T18:35:11.349Z,18.13
2022-11-26T18:40:17.030Z,15.15
2022-11-26T18:45:18.756Z,18.10
2022-11-26T18:50:20.526Z,18.88
2022-11-26T18:55:22.270Z,17.95
2022-11-26T19:00:23.969Z,17.60
2022-11-26T19:05:25.692Z,14.57
2022-11-26T19:10:27.365Z,15.38
2022-11-26T19:15:29.369Z,14.18
2022-11-26T19:20:31.138Z,20.42
2022-11-26T19:25:33.147Z,18.27
2022-11-26T19:30:34.932Z,14.65
2022-11-26T19:35:40.262Z,17.10
2022-11-26T19:40:41.982Z,17.95
2022-11-26T19:45:43.751Z,19.95
2022-11-26T19:50:54.367Z,17.77
2022-11-26T19:56:03.244Z,19.95
2022-11-26T20:01:10.352Z,18.85
2022-11-26T20:06:21.416Z,21.20
2022-11-26T20:11:23.174Z,20.60
2022-11-26T20:16:28.036Z,22.40
2022-11-26T20:21:34.639Z,24.60
2022-11-26T20:26:39.222Z,23.42
2022-11-26T20:31:45.756Z,18.83
2022-11-26T20:36:48.286Z,23.05
2022-11-26T20:41:50.255Z,28.67
2022-11-26T20:46:52.083Z,22.50
2022-11-26T20:51:53.760Z,24.52
2022-11-26T20:56:55.464Z,19.40
2022-11-26T21:01:57.207Z,21.65
2022-11-26T21:06:58.851Z,23.17
2022-11-26T21:12:00.607Z,21.35
2022-11-26T21:17:02.459Z,19.23
2022-11-26T21:22:04.303Z,21.20
2022-11-26T21:27:05.962Z,20.88
2022-11-26T21:32:07.750Z,16.88
2022-11-26T21:37:09.429Z,22.88
2022-11-26T21:42:11.592Z,18.92
2022-11-26T21:47:16.445Z,17.52
2022-11-26T21:52:18.163Z,15.93
2022-11-26T21:57:19.874Z,21.17
2022-11-26T22:02:21.557Z,23.15
2022-11-26T22:07:23.414Z,26.00
2022-11-26T22:12:25.285Z,23.70
2022-11-26T22:17:26.923Z,23.48
2022-11-26T22:22:28.552Z,25.65
2022-11-26T22:27:30.301Z,18.85
2022-11-26T22:32:32.069Z,16.13
2022-11-26T22:37:33.790Z,21.17
2022-11-26T22:42:35.829Z,12.15
2022-11-26T22:47:37.691Z,17.65
2022-11-26T22:52:40.885Z,16.15
2022-11-26T22:57:42.691Z,17.70
2022-11-26T23:02:44.564Z,14.15
2022-11-26T23:07:47.566Z,20.15
2022-11-26T23:12:49.280Z,11.65
2022-11-26T23:17:50.938Z,12.95
2022-11-26T23:22:53.336Z,13.77
2022-11-26T23:27:55.247Z,10.23
2022-11-26T23:32:56.959Z,16.88
2022-11-26T23:37:58.721Z,12.77
2022-11-26T23:43:03.459Z,13.18
2022-11-26T23:48:09.098Z,8.63
2022-11-26T23:53:10.770Z,13.13
2022-11-26T23:58:12.504Z,12.25
